createdAt,value
2019-04-06T00:04:39.994Z,20
2019-04-06T00:09:42.460Z,28
2019-04-06T00:19:47.321Z,36
2019-04-06T00:24:49.795Z,31
2019-04-06T00:29:52.167Z,32
2019-04-06T00:34:54.665Z,27
2019-04-06T00:39:57.056Z,29
2019-04-06T00:44:59.581Z,26
2019-04-06T00:50:01.988Z,25
2019-04-06T00:55:04.358Z,22
2019-04-06T01:00:06.837Z,18
2019-04-06T01:05:09.694Z,15
2019-04-06T01:10:11.697Z,11
2019-04-06T01:15:14.147Z,11
2019-04-06T01:20:16.676Z,11
2019-04-06T01:25:19.012Z,12
2019-04-06T01:30:21.487Z,11
2019-04-06T01:35:24.243Z,12
2019-04-06T01:40:26.330Z,11
2019-04-06T01:45:28.847Z,10
2019-04-06T01:50:31.273Z,10
2019-04-06T01:55:33.677Z,12
2019-04-06T02:00:36.114Z,10
2019-04-06T02:05:38.994Z,13
2019-04-06T02:10:40.986Z,13
2019-04-06T02:15:43.533Z,14
2019-04-06T02:20:46.006Z,9
2019-04-06T02:25:48.394Z,11
2019-04-06T02:30:50.819Z,17
2019-04-06T02:35:53.313Z,15
2019-04-06T02:40:55.649Z,18
2019-04-06T02:45:58.195Z,16
2019-04-06T02:51:00.706Z,15
2019-04-06T02:56:03.066Z,16
2019-04-06T03:01:05.469Z,14
2019-04-06T03:06:08.694Z,14
2019-04-06T03:11:10.295Z,12
2019-04-06T03:16:12.859Z,14
2019-04-06T03:21:15.185Z,14
2019-04-06T03:26:17.759Z,12
2019-04-06T03:31:24.628Z,14
2019-04-06T03:36:22.531Z,13
2019-04-06T03:41:25.106Z,14
2019-04-06T03:46:27.454Z,14
2019-04-06T03:51:29.871Z,13
2019-04-06T03:56:32.273Z,15
2019-04-06T04:01:34.718Z,11
2019-04-06T04:06:38.120Z,13
2019-04-06T04:11:39.627Z,14
2019-04-06T04:16:42.042Z,11
2019-04-06T04:21:44.766Z,15
2019-04-06T04:26:46.974Z,16
2019-04-06T04:31:49.374Z,21
2019-04-06T04:36:52.359Z,30
2019-04-06T04:41:54.233Z,29
2019-04-06T04:46:56.678Z,25
2019-04-06T04:51:59.124Z,25
2019-04-06T04:57:01.691Z,19
2019-04-06T05:02:04.002Z,20
2019-04-06T05:07:06.821Z,17
2019-04-06T05:12:09.018Z,19
2019-04-06T05:17:11.396Z,23
2019-04-06T05:22:13.761Z,33
2019-04-06T05:27:16.340Z,20
2019-04-06T05:32:18.619Z,25
2019-04-06T05:37:21.450Z,21
2019-04-06T05:47:25.986Z,19
2019-04-06T05:52:28.381Z,25
2019-04-06T05:57:32.035Z,23
2019-04-06T06:02:33.471Z,27
2019-04-06T06:07:35.796Z,27
2019-04-06T06:12:38.172Z,25
2019-04-06T06:17:40.570Z,27
2019-04-06T06:22:43.095Z,25
2019-04-06T06:27:46.066Z,27
2019-04-06T06:32:48.050Z,23
2019-04-06T06:37:51.190Z,26
2019-04-06T06:42:52.837Z,24
2019-04-06T06:47:55.524Z,24
2019-04-06T06:52:57.957Z,22
2019-04-06T06:58:00.219Z,24
2019-04-06T07:03:02.551Z,25
2019-04-06T07:08:05.331Z,22
2019-04-06T07:13:07.469Z,27
2019-04-06T07:18:09.869Z,20
2019-04-06T07:23:12.307Z,18
2019-04-06T07:28:14.753Z,29
2019-04-06T07:33:17.233Z,29
2019-04-06T07:38:19.662Z,28
2019-04-06T07:43:22.117Z,31
2019-04-06T07:48:24.531Z,17
2019-04-06T07:53:27.063Z,14
2019-04-06T07:58:29.390Z,17
2019-04-06T08:03:31.837Z,15
2019-04-06T08:08:34.294Z,13
2019-04-06T08:13:37.082Z,15
2019-04-06T08:18:39.445Z,16
2019-04-06T08:23:41.696Z,19
2019-04-06T08:28:44.026Z,15
2019-04-06T08:33:46.468Z,16
2019-04-06T08:38:49.086Z,13
2019-04-06T08:43:51.544Z,13
2019-04-06T08:48:54.187Z,13
2019-04-06T08:53:56.324Z,11
2019-04-06T08:58:58.677Z,9
2019-04-06T09:04:01.188Z,12
2019-04-06T09:09:03.665Z,10
2019-04-06T09:14:06.000Z,11
2019-04-06T09:19:08.625Z,10
2019-04-06T09:29:22.335Z,11
2019-04-06T09:34:15.774Z,12
2019-04-06T09:39:18.276Z,10
2019-04-06T09:44:20.641Z,13
2019-04-06T09:49:23.073Z,16
2019-04-06T09:54:25.586Z,12
2019-04-06T09:59:35.118Z,10
2019-04-06T10:04:30.447Z,14
2019-04-06T10:09:32.830Z,13
2019-04-06T10:14:35.409Z,11
2019-04-06T10:19:37.861Z,13
2019-04-06T10:24:40.188Z,10
2019-04-06T10:29:48.697Z,12
2019-04-06T10:34:45.245Z,13
2019-04-06T10:39:47.489Z,13
2019-04-06T10:44:50.090Z,12
2019-04-06T10:49:52.503Z,11
2019-04-06T10:54:54.859Z,11
2019-04-06T11:00:01.340Z,11
2019-04-06T11:04:59.678Z,11
2019-04-06T11:10:02.264Z,11
2019-04-06T11:15:04.575Z,13
2019-04-06T11:20:07.095Z,11
2019-04-06T11:25:09.480Z,12
2019-04-06T11:30:14.647Z,14
2019-04-06T11:35:14.347Z,11
2019-04-06T11:40:16.991Z,12
2019-04-06T11:45:19.338Z,13
2019-04-06T11:50:21.756Z,16
2019-04-06T11:55:24.089Z,13
2019-04-06T12:00:27.682Z,11
2019-04-06T12:05:28.958Z,15
2019-04-06T12:10:31.482Z,12
2019-04-06T12:15:33.869Z,13
2019-04-06T12:20:36.352Z,13
2019-04-06T12:25:39.080Z,13
2019-04-06T12:30:41.310Z,13
2019-04-06T12:35:43.623Z,13
2019-04-06T12:40:46.065Z,14
2019-04-06T12:45:48.500Z,16
2019-04-06T12:55:53.503Z,12
2019-04-06T13:00:56.045Z,11
2019-04-06T13:05:58.467Z,10
2019-04-06T13:11:01.101Z,13
2019-04-06T13:16:03.158Z,12
2019-04-06T13:21:05.605Z,16
2019-04-06T13:26:09.067Z,11
2019-04-06T13:31:10.494Z,12
2019-04-06T13:36:13.451Z,13
2019-04-06T13:41:15.525Z,12
2019-04-06T13:46:17.785Z,15
2019-04-06T13:51:20.647Z,11
2019-04-06T13:56:22.734Z,11
2019-04-06T14:01:25.163Z,12
2019-04-06T14:06:27.844Z,18
2019-04-06T14:11:30.014Z,18
2019-04-06T14:16:32.441Z,14
2019-04-06T14:21:35.363Z,13
2019-04-06T14:26:37.353Z,15
2019-04-06T14:31:39.845Z,14
2019-04-06T14:36:42.218Z,14
2019-04-06T14:41:44.676Z,13
2019-04-06T14:46:47.419Z,15
2019-04-06T14:51:49.723Z,12
2019-04-06T14:56:52.121Z,12
2019-04-06T15:01:58.128Z,12
2019-04-06T15:11:59.509Z,12
2019-04-06T15:17:01.915Z,11
2019-04-06T15:22:04.401Z,15
2019-04-06T15:27:06.973Z,13
2019-04-06T15:32:09.069Z,12
2019-04-06T15:37:11.512Z,13
2019-04-06T15:42:13.975Z,15
2019-04-06T15:47:16.379Z,12
2019-04-06T15:52:18.826Z,16
2019-04-06T15:57:21.300Z,14
2019-04-06T16:02:23.749Z,14
2019-04-06T16:07:31.650Z,17
2019-04-06T16:12:28.577Z,15
2019-04-06T16:17:31.232Z,15
2019-04-06T16:22:33.773Z,18
2019-04-06T16:27:35.937Z,15
2019-04-06T16:32:38.438Z,16
2019-04-06T16:37:40.864Z,15
2019-04-06T16:42:43.215Z,16
2019-04-06T16:47:53.307Z,19
2019-04-06T16:52:48.389Z,16
2019-04-06T16:57:50.602Z,23
2019-04-06T17:02:53.115Z,22
2019-04-06T17:07:55.451Z,21
2019-04-06T17:12:58.103Z,18
2019-04-06T17:18:00.409Z,20
2019-04-06T17:23:02.860Z,16
2019-04-06T17:28:05.524Z,15
2019-04-06T17:33:07.693Z,14
2019-04-06T17:38:10.107Z,14
2019-04-06T17:43:12.526Z,14
2019-04-06T17:48:14.982Z,14
2019-04-06T17:53:17.927Z,14
2019-04-06T17:58:19.965Z,13
2019-04-06T18:03:22.486Z,14
2019-04-06T18:08:24.805Z,13
2019-04-06T18:13:27.541Z,15
2019-04-06T18:18:29.594Z,13
2019-04-06T18:23:32.321Z,14
2019-04-06T18:28:34.961Z,15
2019-04-06T18:33:36.921Z,13
2019-04-06T18:38:40.587Z,12
2019-04-06T18:43:41.792Z,13
2019-04-06T18:48:44.344Z,14
2019-04-06T18:53:47.003Z,12
2019-04-06T18:58:49.248Z,13
2019-04-06T19:03:51.762Z,14
2019-04-06T19:08:54.024Z,14
2019-04-06T19:13:56.615Z,12
2019-04-06T19:18:58.903Z,13
2019-04-06T19:24:01.347Z,14
2019-04-06T19:29:03.791Z,13
2019-04-06T19:34:06.207Z,12
2019-04-06T19:39:08.725Z,13
2019-04-06T19:44:11.336Z,11
2019-04-06T19:49:13.552Z,12
2019-04-06T19:54:16.469Z,14
2019-04-06T19:59:18.615Z,14
2019-04-06T20:04:20.882Z,12
2019-04-06T20:09:23.291Z,13
2019-04-06T20:14:25.731Z,11
2019-04-06T20:19:28.522Z,10
2019-04-06T20:24:30.641Z,11
2019-04-06T20:29:33.117Z,11
2019-04-06T20:34:36.114Z,11
2019-04-06T20:39:37.935Z,10
2019-04-06T20:44:40.850Z,10
2019-04-06T20:49:42.812Z,10
2019-04-06T20:54:45.254Z,11
2019-04-06T20:59:48.503Z,10
2019-04-06T21:04:50.642Z,12
2019-04-06T21:09:52.880Z,11
2019-04-06T21:14:55.461Z,11
2019-04-06T21:19:57.458Z,8
2019-04-06T21:25:00.338Z,9
2019-04-06T21:30:02.366Z,8
2019-04-06T21:35:05.453Z,11
2019-04-06T21:40:07.269Z,11
2019-04-06T21:45:09.686Z,8
2019-04-06T21:50:12.117Z,8
2019-04-06T21:55:14.987Z,7
2019-04-06T22:00:16.984Z,8
2019-04-06T22:05:19.475Z,8
2019-04-06T22:10:21.986Z,9
2019-04-06T22:15:24.682Z,9
2019-04-06T22:20:26.749Z,6
2019-04-06T22:25:29.173Z,6
2019-04-06T22:30:31.617Z,6
2019-04-06T22:35:34.049Z,6
2019-04-06T22:40:37.014Z,6
2019-04-06T22:45:39.253Z,6
2019-04-06T22:50:41.878Z,6
2019-04-06T22:55:43.901Z,6
2019-04-06T23:00:46.433Z,7
2019-04-06T23:05:48.710Z,6
2019-04-06T23:10:51.132Z,7
2019-04-06T23:15:54.197Z,7
2019-04-06T23:20:56.556Z,7
2019-04-06T23:25:58.665Z,8
2019-04-06T23:31:01.300Z,8
2019-04-06T23:36:03.413Z,8
2019-04-06T23:41:05.834Z,8
2019-04-06T23:46:08.649Z,7
2019-04-06T23:51:11.000Z,9
2019-04-06T23:56:13.635Z,8
